sensor_id;sensor_type;location;lat;lon;timestamp;temperature;humidity
13310;DHT22;6723;48.256;16.402;2023-03-20T00:01:12;8.60;91.40
13310;DHT22;6723;48.256;16.402;2023-03-20T00:03:39;8.60;91.50
13310;DHT22;6723;48.256;16.402;2023-03-20T00:06:15;8.50;91.50
13310;DHT22;6723;48.256;16.402;2023-03-20T00:08:43;8.50;91.60
13310;DHT22;6723;48.256;16.402;2023-03-20T00:11:27;8.50;91.70
13310;DHT22;6723;48.256;16.402;2023-03-20T00:13:55;8.40;91.80
13310;DHT22;6723;48.256;16.402;2023-03-20T00:16:24;8.40;91.90
13310;DHT22;6723;48.256;16.402;2023-03-20T00:18:51;8.40;92.00
13310;DHT22;6723;48.256;16.402;2023-03-20T00:21:18;8.40;92.00
13310;DHT22;6723;48.256;16.402;2023-03-20T00:23:44;8.40;92.10
13310;DHT22;6723;48.256;16.402;2023-03-20T00:26:14;8.30;92.20
13310;DHT22;6723;48.256;16.402;2023-03-20T00:28:45;8.30;92.30
13310;DHT22;6723;48.256;16.402;2023-03-20T00:31:25;8.30;92.30
13310;DHT22;6723;48.256;16.402;2023-03-20T00:33:53;8.20;92.40
13310;DHT22;6723;48.256;16.402;2023-03-20T00:36:21;8.30;92.50
13310;DHT22;6723;48.256;16.402;2023-03-20T00:38:52;8.30;92.60
13310;DHT22;6723;48.256;16.402;2023-03-20T00:47:26;8.30;92.80
13310;DHT22;6723;48.256;16.402;2023-03-20T00:49:53;8.20;92.80
13310;DHT22;6723;48.256;16.402;2023-03-20T00:52:21;8.20;92.80
13310;DHT22;6723;48.256;16.402;2023-03-20T00:54:47;8.20;93.00
13310;DHT22;6723;48.256;16.402;2023-03-20T00:57:23;8.10;93.10
13310;DHT22;6723;48.256;16.402;2023-03-20T01:02:54;8.10;93.30
13310;DHT22;6723;48.256;16.402;2023-03-20T01:05:21;8.10;93.30
13310;DHT22;6723;48.256;16.402;2023-03-20T01:07:48;8.00;93.50
13310;DHT22;6723;48.256;16.402;2023-03-20T01:10:14;8.10;93.60
13310;DHT22;6723;48.256;16.402;2023-03-20T01:12:41;8.00;93.60
13310;DHT22;6723;48.256;16.402;2023-03-20T01:15:25;8.00;93.70
13310;DHT22;6723;48.256;16.402;2023-03-20T01:17:52;8.00;93.80
13310;DHT22;6723;48.256;16.402;2023-03-20T01:20:22;8.00;93.80
13310;DHT22;6723;48.256;16.402;2023-03-20T01:22:49;8.00;93.90
13310;DHT22;6723;48.256;16.402;2023-03-20T01:25:15;7.90;93.90
13310;DHT22;6723;48.256;16.402;2023-03-20T01:27:50;7.90;93.90
13310;DHT22;6723;48.256;16.402;2023-03-20T01:30:22;7.90;94.00
13310;DHT22;6723;48.256;16.402;2023-03-20T01:32:49;7.90;94.00
13310;DHT22;6723;48.256;16.402;2023-03-20T01:35:19;7.90;94.10
13310;DHT22;6723;48.256;16.402;2023-03-20T01:37:47;7.90;94.10
13310;DHT22;6723;48.256;16.402;2023-03-20T01:43:16;7.80;94.50
13310;DHT22;6723;48.256;16.402;2023-03-20T01:46:00;7.80;94.30
13310;DHT22;6723;48.256;16.402;2023-03-20T01:48:54;7.80;94.40
13310;DHT22;6723;48.256;16.402;2023-03-20T01:56:28;7.70;94.80
13310;DHT22;6723;48.256;16.402;2023-03-20T01:58:59;7.70;95.00
13310;DHT22;6723;48.256;16.402;2023-03-20T02:01:27;7.60;95.10
13310;DHT22;6723;48.256;16.402;2023-03-20T02:03:55;7.60;95.10
13310;DHT22;6723;48.256;16.402;2023-03-20T02:06:23;7.60;95.20
13310;DHT22;6723;48.256;16.402;2023-03-20T02:08:51;7.60;95.30
13310;DHT22;6723;48.256;16.402;2023-03-20T02:11:22;7.70;95.30
13310;DHT22;6723;48.256;16.402;2023-03-20T02:13:51;7.70;95.40
13310;DHT22;6723;48.256;16.402;2023-03-20T02:16:18;7.70;95.40
13310;DHT22;6723;48.256;16.402;2023-03-20T02:18:47;7.70;95.40
13310;DHT22;6723;48.256;16.402;2023-03-20T02:24:12;7.70;95.50
13310;DHT22;6723;48.256;16.402;2023-03-20T02:42:45;7.70;95.70
13310;DHT22;6723;48.256;16.402;2023-03-20T02:48:56;7.70;95.90
13310;DHT22;6723;48.256;16.402;2023-03-20T02:51:01;7.70;96.00
13310;DHT22;6723;48.256;16.402;2023-03-20T02:53:37;7.70;96.10
13310;DHT22;6723;48.256;16.402;2023-03-20T02:59:07;7.70;96.30
13310;DHT22;6723;48.256;16.402;2023-03-20T03:01:42;7.60;96.30
13310;DHT22;6723;48.256;16.402;2023-03-20T03:04:22;7.60;96.30
13310;DHT22;6723;48.256;16.402;2023-03-20T03:06:50;7.60;96.50
13310;DHT22;6723;48.256;16.402;2023-03-20T03:09:28;7.60;96.60
13310;DHT22;6723;48.256;16.402;2023-03-20T03:12:00;7.50;96.70
13310;DHT22;6723;48.256;16.402;2023-03-20T03:14:36;7.50;96.70
13310;DHT22;6723;48.256;16.402;2023-03-20T03:17:05;7.50;96.80
13310;DHT22;6723;48.256;16.402;2023-03-20T03:19:33;7.50;96.90
13310;DHT22;6723;48.256;16.402;2023-03-20T03:22:01;7.40;96.90
13310;DHT22;6723;48.256;16.402;2023-03-20T03:24:42;7.50;97.10
13310;DHT22;6723;48.256;16.402;2023-03-20T03:29:42;7.40;97.30
13310;DHT22;6723;48.256;16.402;2023-03-20T03:32:30;7.40;97.50
13310;DHT22;6723;48.256;16.402;2023-03-20T03:34:58;7.40;97.60
13310;DHT22;6723;48.256;16.402;2023-03-20T03:40:41;7.50;97.90
13310;DHT22;6723;48.256;16.402;2023-03-20T03:46:12;7.50;98.00
13310;DHT22;6723;48.256;16.402;2023-03-20T03:48:50;7.50;98.00
13310;DHT22;6723;48.256;16.402;2023-03-20T03:51:22;7.50;98.10
13310;DHT22;6723;48.256;16.402;2023-03-20T03:53:59;7.50;98.10
13310;DHT22;6723;48.256;16.402;2023-03-20T03:56:28;7.50;98.10
13310;DHT22;6723;48.256;16.402;2023-03-20T03:59:00;7.50;98.10
13310;DHT22;6723;48.256;16.402;2023-03-20T04:01:27;7.60;98.20
13310;DHT22;6723;48.256;16.402;2023-03-20T04:03:57;7.50;98.30
13310;DHT22;6723;48.256;16.402;2023-03-20T04:06:26;7.50;98.30
13310;DHT22;6723;48.256;16.402;2023-03-20T04:08:52;7.50;98.50
13310;DHT22;6723;48.256;16.402;2023-03-20T04:11:24;7.50;98.70
13310;DHT22;6723;48.256;16.402;2023-03-20T04:13:51;7.40;98.80
13310;DHT22;6723;48.256;16.402;2023-03-20T04:16:19;7.50;98.70
13310;DHT22;6723;48.256;16.402;2023-03-20T04:18:45;7.40;98.80
13310;DHT22;6723;48.256;16.402;2023-03-20T04:21:11;7.40;99.00
13310;DHT22;6723;48.256;16.402;2023-03-20T04:23:38;7.30;99.10
13310;DHT22;6723;48.256;16.402;2023-03-20T04:26:04;7.30;99.30
13310;DHT22;6723;48.256;16.402;2023-03-20T04:28:31;7.20;99.50
13310;DHT22;6723;48.256;16.402;2023-03-20T04:30:58;7.30;99.70
13310;DHT22;6723;48.256;16.402;2023-03-20T04:33:25;7.20;99.80
13310;DHT22;6723;48.256;16.402;2023-03-20T04:35:52;7.20;99.90
13310;DHT22;6723;48.256;16.402;2023-03-20T04:38:19;7.20;99.90
13310;DHT22;6723;48.256;16.402;2023-03-20T04:40:46;7.20;99.90
13310;DHT22;6723;48.256;16.402;2023-03-20T04:43:12;7.20;99.90
13310;DHT22;6723;48.256;16.402;2023-03-20T04:45:39;7.20;99.90
13310;DHT22;6723;48.256;16.402;2023-03-20T04:48:06;7.20;99.90
13310;DHT22;6723;48.256;16.402;2023-03-20T04:50:32;7.10;99.90
13310;DHT22;6723;48.256;16.402;2023-03-20T04:52:58;7.10;99.90
13310;DHT22;6723;48.256;16.402;2023-03-20T04:55:24;7.10;99.90
13310;DHT22;6723;48.256;16.402;2023-03-20T04:57:50;7.10;99.90
13310;DHT22;6723;48.256;16.402;2023-03-20T05:00:16;7.10;99.90
13310;DHT22;6723;48.256;16.402;2023-03-20T05:02:43;7.10;99.90
13310;DHT22;6723;48.256;16.402;2023-03-20T05:05:09;7.10;99.90
13310;DHT22;6723;48.256;16.402;2023-03-20T05:07:36;7.10;99.90
13310;DHT22;6723;48.256;16.402;2023-03-20T05:10:03;7.10;99.90
13310;DHT22;6723;48.256;16.402;2023-03-20T05:12:30;7.10;99.90
13310;DHT22;6723;48.256;16.402;2023-03-20T05:14:56;7.00;99.90
13310;DHT22;6723;48.256;16.402;2023-03-20T05:17:22;7.00;99.90
13310;DHT22;6723;48.256;16.402;2023-03-20T05:19:48;7.00;99.90
13310;DHT22;6723;48.256;16.402;2023-03-20T05:22:18;7.10;99.90
13310;DHT22;6723;48.256;16.402;2023-03-20T05:24:44;7.20;99.90
13310;DHT22;6723;48.256;16.402;2023-03-20T05:27:10;7.30;99.90
13310;DHT22;6723;48.256;16.402;2023-03-20T05:29:36;7.30;99.90
13310;DHT22;6723;48.256;16.402;2023-03-20T05:32:02;7.40;99.90
13310;DHT22;6723;48.256;16.402;2023-03-20T05:34:28;7.40;99.90
13310;DHT22;6723;48.256;16.402;2023-03-20T05:36:54;7.50;99.90
13310;DHT22;6723;48.256;16.402;2023-03-20T05:39:20;7.60;99.90
13310;DHT22;6723;48.256;16.402;2023-03-20T05:41:47;7.70;99.90
13310;DHT22;6723;48.256;16.402;2023-03-20T05:44:13;7.70;99.90
13310;DHT22;6723;48.256;16.402;2023-03-20T05:46:39;7.80;99.90
13310;DHT22;6723;48.256;16.402;2023-03-20T05:49:05;7.80;99.90
13310;DHT22;6723;48.256;16.402;2023-03-20T05:51:31;7.90;99.90
13310;DHT22;6723;48.256;16.402;2023-03-20T05:53:57;7.90;99.90
13310;DHT22;6723;48.256;16.402;2023-03-20T05:56:22;8.00;99.90
13310;DHT22;6723;48.256;16.402;2023-03-20T05:58:48;8.00;99.90
13310;DHT22;6723;48.256;16.402;2023-03-20T06:01:14;8.00;99.90
13310;DHT22;6723;48.256;16.402;2023-03-20T06:03:43;8.10;99.90
13310;DHT22;6723;48.256;16.402;2023-03-20T06:06:08;8.20;99.90
13310;DHT22;6723;48.256;16.402;2023-03-20T06:08:35;8.20;99.90
13310;DHT22;6723;48.256;16.402;2023-03-20T06:11:02;8.30;99.90
13310;DHT22;6723;48.256;16.402;2023-03-20T06:13:28;8.30;99.90
13310;DHT22;6723;48.256;16.402;2023-03-20T06:15:54;8.30;99.90
13310;DHT22;6723;48.256;16.402;2023-03-20T06:18:21;8.40;99.90
13310;DHT22;6723;48.256;16.402;2023-03-20T06:20:52;8.40;99.90
13310;DHT22;6723;48.256;16.402;2023-03-20T06:23:18;8.50;99.90
13310;DHT22;6723;48.256;16.402;2023-03-20T06:25:44;8.50;99.90
13310;DHT22;6723;48.256;16.402;2023-03-20T06:28:09;8.60;99.90
13310;DHT22;6723;48.256;16.402;2023-03-20T06:30:36;8.60;99.90
13310;DHT22;6723;48.256;16.402;2023-03-20T06:33:02;8.80;99.90
13310;DHT22;6723;48.256;16.402;2023-03-20T06:35:28;8.90;99.90
13310;DHT22;6723;48.256;16.402;2023-03-20T06:37:56;9.00;99.90
13310;DHT22;6723;48.256;16.402;2023-03-20T06:40:23;9.10;99.90
13310;DHT22;6723;48.256;16.402;2023-03-20T06:42:48;9.20;99.90
13310;DHT22;6723;48.256;16.402;2023-03-20T06:45:14;9.30;99.90
13310;DHT22;6723;48.256;16.402;2023-03-20T06:47:41;9.40;99.90
13310;DHT22;6723;48.256;16.402;2023-03-20T06:50:08;9.60;99.90
13310;DHT22;6723;48.256;16.402;2023-03-20T06:52:34;9.90;99.70
13310;DHT22;6723;48.256;16.402;2023-03-20T06:55:00;10.10;98.60
13310;DHT22;6723;48.256;16.402;2023-03-20T06:57:27;10.40;98.20
13310;DHT22;6723;48.256;16.402;2023-03-20T06:59:52;10.70;97.40
13310;DHT22;6723;48.256;16.402;2023-03-20T07:02:18;10.70;96.90
13310;DHT22;6723;48.256;16.402;2023-03-20T07:04:44;10.80;96.80
13310;DHT22;6723;48.256;16.402;2023-03-20T07:07:11;11.60;96.30
13310;DHT22;6723;48.256;16.402;2023-03-20T07:09:37;12.60;94.90
13310;DHT22;6723;48.256;16.402;2023-03-20T07:12:03;13.70;93.20
13310;DHT22;6723;48.256;16.402;2023-03-20T07:14:29;15.00;91.50
13310;DHT22;6723;48.256;16.402;2023-03-20T07:16:55;15.70;90.30
13310;DHT22;6723;48.256;16.402;2023-03-20T07:19:21;16.60;88.50
13310;DHT22;6723;48.256;16.402;2023-03-20T07:21:47;17.50;87.80
13310;DHT22;6723;48.256;16.402;2023-03-20T07:24:13;18.00;85.30
13310;DHT22;6723;48.256;16.402;2023-03-20T07:26:39;18.80;83.80
13310;DHT22;6723;48.256;16.402;2023-03-20T07:29:06;19.40;81.70
13310;DHT22;6723;48.256;16.402;2023-03-20T07:31:32;20.00;78.90
13310;DHT22;6723;48.256;16.402;2023-03-20T07:33:58;20.40;78.20
13310;DHT22;6723;48.256;16.402;2023-03-20T07:36:24;20.80;77.30
13310;DHT22;6723;48.256;16.402;2023-03-20T07:38:50;21.20;75.80
13310;DHT22;6723;48.256;16.402;2023-03-20T07:41:18;21.30;75.50
13310;DHT22;6723;48.256;16.402;2023-03-20T07:43:44;21.20;74.70
13310;DHT22;6723;48.256;16.402;2023-03-20T07:46:10;21.40;74.30
13310;DHT22;6723;48.256;16.402;2023-03-20T07:48:35;21.80;74.00
13310;DHT22;6723;48.256;16.402;2023-03-20T07:51:01;21.10;73.50
13310;DHT22;6723;48.256;16.402;2023-03-20T07:53:27;21.80;74.00
13310;DHT22;6723;48.256;16.402;2023-03-20T07:55:54;22.10;73.10
13310;DHT22;6723;48.256;16.402;2023-03-20T07:58:20;22.00;72.30
13310;DHT22;6723;48.256;16.402;2023-03-20T08:00:46;22.10;72.90
13310;DHT22;6723;48.256;16.402;2023-03-20T08:03:12;22.00;72.50
13310;DHT22;6723;48.256;16.402;2023-03-20T08:05:38;22.60;72.80
13310;DHT22;6723;48.256;16.402;2023-03-20T08:08:04;22.70;72.00
13310;DHT22;6723;48.256;16.402;2023-03-20T08:10:30;22.70;71.80
13310;DHT22;6723;48.256;16.402;2023-03-20T08:12:56;22.30;71.70
13310;DHT22;6723;48.256;16.402;2023-03-20T08:15:22;21.50;73.00
13310;DHT22;6723;48.256;16.402;2023-03-20T08:17:48;21.40;74.00
13310;DHT22;6723;48.256;16.402;2023-03-20T08:20:15;21.30;74.70
13310;DHT22;6723;48.256;16.402;2023-03-20T08:22:57;21.20;74.40
13310;DHT22;6723;48.256;16.402;2023-03-20T08:25:23;20.70;74.90
13310;DHT22;6723;48.256;16.402;2023-03-20T08:27:49;20.80;75.50
13310;DHT22;6723;48.256;16.402;2023-03-20T08:30:15;20.50;76.20
13310;DHT22;6723;48.256;16.402;2023-03-20T08:32:41;21.00;75.70
13310;DHT22;6723;48.256;16.402;2023-03-20T08:35:07;21.10;75.80
13310;DHT22;6723;48.256;16.402;2023-03-20T08:37:34;21.00;75.70
13310;DHT22;6723;48.256;16.402;2023-03-20T08:40:00;21.10;75.70
13310;DHT22;6723;48.256;16.402;2023-03-20T08:42:26;20.70;75.90
13310;DHT22;6723;48.256;16.402;2023-03-20T08:44:52;20.80;75.80
13310;DHT22;6723;48.256;16.402;2023-03-20T08:47:17;20.60;75.80
13310;DHT22;6723;48.256;16.402;2023-03-20T08:49:44;20.40;76.20
13310;DHT22;6723;48.256;16.402;2023-03-20T08:52:12;20.30;77.00
13310;DHT22;6723;48.256;16.402;2023-03-20T08:54:38;20.50;76.50
13310;DHT22;6723;48.256;16.402;2023-03-20T08:57:04;20.40;76.30
13310;DHT22;6723;48.256;16.402;2023-03-20T08:59:31;20.30;76.90
13310;DHT22;6723;48.256;16.402;2023-03-20T09:01:59;20.60;77.30
13310;DHT22;6723;48.256;16.402;2023-03-20T09:04:24;20.50;76.60
13310;DHT22;6723;48.256;16.402;2023-03-20T09:06:50;20.70;77.20
13310;DHT22;6723;48.256;16.402;2023-03-20T09:09:16;21.10;77.00
13310;DHT22;6723;48.256;16.402;2023-03-20T09:11:44;21.80;75.40
13310;DHT22;6723;48.256;16.402;2023-03-20T09:14:11;21.70;75.60
13310;DHT22;6723;48.256;16.402;2023-03-20T09:16:36;21.80;75.30
13310;DHT22;6723;48.256;16.402;2023-03-20T09:19:03;21.90;75.30
13310;DHT22;6723;48.256;16.402;2023-03-20T09:21:28;22.00;75.30
13310;DHT22;6723;48.256;16.402;2023-03-20T09:23:55;21.60;74.70
13310;DHT22;6723;48.256;16.402;2023-03-20T09:26:20;20.70;75.40
13310;DHT22;6723;48.256;16.402;2023-03-20T09:28:46;20.20;77.30
13310;DHT22;6723;48.256;16.402;2023-03-20T09:31:12;20.20;77.70
13310;DHT22;6723;48.256;16.402;2023-03-20T09:33:38;20.10;77.50
13310;DHT22;6723;48.256;16.402;2023-03-20T09:36:04;20.00;77.30
13310;DHT22;6723;48.256;16.402;2023-03-20T09:38:30;19.80;77.90
13310;DHT22;6723;48.256;16.402;2023-03-20T09:40:59;19.90;78.50
13310;DHT22;6723;48.256;16.402;2023-03-20T09:49:27;20.50;75.60
13310;DHT22;6723;48.256;16.402;2023-03-20T09:51:59;20.20;75.80
13310;DHT22;6723;48.256;16.402;2023-03-20T09:54:44;20.20;75.30
13310;DHT22;6723;48.256;16.402;2023-03-20T09:57:44;19.50;76.40
13310;DHT22;6723;48.256;16.402;2023-03-20T10:00:37;19.40;77.60
13310;DHT22;6723;48.256;16.402;2023-03-20T10:03:13;19.60;77.20
13310;DHT22;6723;48.256;16.402;2023-03-20T10:05:48;20.00;77.30
13310;DHT22;6723;48.256;16.402;2023-03-20T10:08:18;20.20;76.70
13310;DHT22;6723;48.256;16.402;2023-03-20T10:10:56;21.00;76.30
13310;DHT22;6723;48.256;16.402;2023-03-20T10:19:31;21.20;73.90
13310;DHT22;6723;48.256;16.402;2023-03-20T10:22:05;20.80;75.00
13310;DHT22;6723;48.256;16.402;2023-03-20T10:24:38;20.90;75.40
13310;DHT22;6723;48.256;16.402;2023-03-20T10:27:22;21.50;75.10
13310;DHT22;6723;48.256;16.402;2023-03-20T10:32:40;22.60;73.80
13310;DHT22;6723;48.256;16.402;2023-03-20T10:35:42;23.10;72.30
13310;DHT22;6723;48.256;16.402;2023-03-20T10:40:37;22.90;70.80
13310;DHT22;6723;48.256;16.402;2023-03-20T10:48:20;23.00;70.60
13310;DHT22;6723;48.256;16.402;2023-03-20T10:50:51;23.30;70.90
13310;DHT22;6723;48.256;16.402;2023-03-20T10:56:02;23.70;70.00
13310;DHT22;6723;48.256;16.402;2023-03-20T10:58:34;23.20;69.80
13310;DHT22;6723;48.256;16.402;2023-03-20T11:01:01;23.00;69.30
13310;DHT22;6723;48.256;16.402;2023-03-20T11:03:30;22.90;69.30
13310;DHT22;6723;48.256;16.402;2023-03-20T11:06:00;22.80;70.50
13310;DHT22;6723;48.256;16.402;2023-03-20T11:08:35;22.70;69.80
13310;DHT22;6723;48.256;16.402;2023-03-20T11:11:02;22.30;69.80
13310;DHT22;6723;48.256;16.402;2023-03-20T11:13:34;22.00;70.30
13310;DHT22;6723;48.256;16.402;2023-03-20T11:16:14;21.80;71.10
13310;DHT22;6723;48.256;16.402;2023-03-20T11:18:41;23.00;70.50
13310;DHT22;6723;48.256;16.402;2023-03-20T11:21:26;23.90;69.30
13310;DHT22;6723;48.256;16.402;2023-03-20T11:23:53;24.00;68.20
13310;DHT22;6723;48.256;16.402;2023-03-20T11:26:40;24.10;67.60
13310;DHT22;6723;48.256;16.402;2023-03-20T11:29:14;23.50;68.50
13310;DHT22;6723;48.256;16.402;2023-03-20T11:31:41;23.60;68.30
13310;DHT22;6723;48.256;16.402;2023-03-20T11:34:19;24.20;69.00
13310;DHT22;6723;48.256;16.402;2023-03-20T11:36:58;24.60;67.20
13310;DHT22;6723;48.256;16.402;2023-03-20T11:39:30;24.30;67.50
13310;DHT22;6723;48.256;16.402;2023-03-20T11:42:00;24.20;67.30
13310;DHT22;6723;48.256;16.402;2023-03-20T11:44:34;24.80;66.70
13310;DHT22;6723;48.256;16.402;2023-03-20T11:47:05;24.10;66.90
13310;DHT22;6723;48.256;16.402;2023-03-20T11:49:45;24.50;66.90
13310;DHT22;6723;48.256;16.402;2023-03-20T11:52:19;24.50;67.20
13310;DHT22;6723;48.256;16.402;2023-03-20T11:54:51;24.00;67.30
13310;DHT22;6723;48.256;16.402;2023-03-20T11:57:36;23.90;68.10
13310;DHT22;6723;48.256;16.402;2023-03-20T12:02:50;22.80;70.20
13310;DHT22;6723;48.256;16.402;2023-03-20T12:05:34;23.60;69.70
13310;DHT22;6723;48.256;16.402;2023-03-20T12:08:28;23.00;69.30
13310;DHT22;6723;48.256;16.402;2023-03-20T12:11:02;22.80;69.10
13310;DHT22;6723;48.256;16.402;2023-03-20T12:13:37;22.90;69.80
13310;DHT22;6723;48.256;16.402;2023-03-20T12:16:10;23.50;68.40
13310;DHT22;6723;48.256;16.402;2023-03-20T12:18:48;23.30;68.00
13310;DHT22;6723;48.256;16.402;2023-03-20T12:21:37;23.70;67.70
13310;DHT22;6723;48.256;16.402;2023-03-20T12:24:16;24.00;67.30
13310;DHT22;6723;48.256;16.402;2023-03-20T12:30:07;24.70;67.80
13310;DHT22;6723;48.256;16.402;2023-03-20T12:32:49;24.10;67.90
13310;DHT22;6723;48.256;16.402;2023-03-20T12:35:28;24.30;67.60
13310;DHT22;6723;48.256;16.402;2023-03-20T12:37:54;23.50;67.80
13310;DHT22;6723;48.256;16.402;2023-03-20T12:40:31;23.10;68.30
13310;DHT22;6723;48.256;16.402;2023-03-20T12:43:19;23.20;68.70
13310;DHT22;6723;48.256;16.402;2023-03-20T12:46:53;22.20;69.80
13310;DHT22;6723;48.256;16.402;2023-03-20T12:51:55;20.70;72.90
13310;DHT22;6723;48.256;16.402;2023-03-20T13:00:30;19.90;75.30
13310;DHT22;6723;48.256;16.402;2023-03-20T13:12:07;20.00;76.50
13310;DHT22;6723;48.256;16.402;2023-03-20T13:14:56;19.90;76.30
13310;DHT22;6723;48.256;16.402;2023-03-20T13:25:55;20.80;75.90
13310;DHT22;6723;48.256;16.402;2023-03-20T13:28:51;20.90;75.60
13310;DHT22;6723;48.256;16.402;2023-03-20T13:31:29;20.70;75.50
13310;DHT22;6723;48.256;16.402;2023-03-20T13:36:48;20.90;75.00
13310;DHT22;6723;48.256;16.402;2023-03-20T13:39:32;20.40;74.70
13310;DHT22;6723;48.256;16.402;2023-03-20T13:42:02;19.90;74.90
13310;DHT22;6723;48.256;16.402;2023-03-20T13:44:29;19.80;75.70
13310;DHT22;6723;48.256;16.402;2023-03-20T13:47:07;19.90;76.00
13310;DHT22;6723;48.256;16.402;2023-03-20T13:52:14;19.90;75.90
13310;DHT22;6723;48.256;16.402;2023-03-20T14:05:19;19.20;77.30
13310;DHT22;6723;48.256;16.402;2023-03-20T14:07:48;19.00;77.50
13310;DHT22;6723;48.256;16.402;2023-03-20T14:12:57;18.70;79.10
13310;DHT22;6723;48.256;16.402;2023-03-20T14:15:27;18.60;79.00
13310;DHT22;6723;48.256;16.402;2023-03-20T14:17:53;18.80;78.40
13310;DHT22;6723;48.256;16.402;2023-03-20T14:20:31;18.60;77.40
13310;DHT22;6723;48.256;16.402;2023-03-20T14:22:58;18.60;77.30
13310;DHT22;6723;48.256;16.402;2023-03-20T14:25:25;18.50;77.30
13310;DHT22;6723;48.256;16.402;2023-03-20T14:28:26;18.60;77.60
13310;DHT22;6723;48.256;16.402;2023-03-20T14:33:57;18.70;78.70
13310;DHT22;6723;48.256;16.402;2023-03-20T14:42:19;18.30;79.80
13310;DHT22;6723;48.256;16.402;2023-03-20T14:53:18;18.20;80.80
13310;DHT22;6723;48.256;16.402;2023-03-20T15:04:08;18.40;79.90
13310;DHT22;6723;48.256;16.402;2023-03-20T15:06:57;18.30;79.20
13310;DHT22;6723;48.256;16.402;2023-03-20T15:09:25;18.30;79.30
13310;DHT22;6723;48.256;16.402;2023-03-20T15:11:53;18.30;79.50
13310;DHT22;6723;48.256;16.402;2023-03-20T15:14:27;18.20;79.50
13310;DHT22;6723;48.256;16.402;2023-03-20T15:16:59;18.10;80.10
13310;DHT22;6723;48.256;16.402;2023-03-20T15:19:25;18.10;80.10
13310;DHT22;6723;48.256;16.402;2023-03-20T15:21:53;18.10;80.00
13310;DHT22;6723;48.256;16.402;2023-03-20T15:24:24;17.90;79.50
13310;DHT22;6723;48.256;16.402;2023-03-20T15:27:01;17.90;79.90
13310;DHT22;6723;48.256;16.402;2023-03-20T15:29:28;17.90;79.40
13310;DHT22;6723;48.256;16.402;2023-03-20T15:31:58;17.90;79.50
13310;DHT22;6723;48.256;16.402;2023-03-20T15:34:30;17.70;79.80
13310;DHT22;6723;48.256;16.402;2023-03-20T15:36:59;17.60;79.70
13310;DHT22;6723;48.256;16.402;2023-03-20T15:39:46;17.60;79.60
13310;DHT22;6723;48.256;16.402;2023-03-20T15:42:16;17.70;79.40
13310;DHT22;6723;48.256;16.402;2023-03-20T15:44:45;17.50;79.00
13310;DHT22;6723;48.256;16.402;2023-03-20T15:47:21;17.40;79.40
13310;DHT22;6723;48.256;16.402;2023-03-20T15:49:57;17.50;79.50
13310;DHT22;6723;48.256;16.402;2023-03-20T15:52:37;17.30;79.10
13310;DHT22;6723;48.256;16.402;2023-03-20T15:55:17;17.30;79.10
13310;DHT22;6723;48.256;16.402;2023-03-20T15:57:45;17.20;79.00
13310;DHT22;6723;48.256;16.402;2023-03-20T16:00:18;17.10;78.90
13310;DHT22;6723;48.256;16.402;2023-03-20T16:02:47;16.90;79.20
13310;DHT22;6723;48.256;16.402;2023-03-20T16:05:15;16.80;79.50
13310;DHT22;6723;48.256;16.402;2023-03-20T16:07:41;16.70;79.60
13310;DHT22;6723;48.256;16.402;2023-03-20T16:10:33;16.70;80.00
13310;DHT22;6723;48.256;16.402;2023-03-20T16:13:02;16.70;80.20
13310;DHT22;6723;48.256;16.402;2023-03-20T16:15:30;16.60;80.30
13310;DHT22;6723;48.256;16.402;2023-03-20T16:18:00;16.50;80.60
13310;DHT22;6723;48.256;16.402;2023-03-20T16:20:37;16.40;81.10
13310;DHT22;6723;48.256;16.402;2023-03-20T16:23:07;16.40;81.40
13310;DHT22;6723;48.256;16.402;2023-03-20T16:25:34;16.40;81.40
13310;DHT22;6723;48.256;16.402;2023-03-20T16:28:00;16.30;82.00
13310;DHT22;6723;48.256;16.402;2023-03-20T16:30:32;16.20;82.40
13310;DHT22;6723;48.256;16.402;2023-03-20T16:33:10;16.10;82.90
13310;DHT22;6723;48.256;16.402;2023-03-20T16:35:47;16.10;83.00
13310;DHT22;6723;48.256;16.402;2023-03-20T16:38:23;16.00;83.70
13310;DHT22;6723;48.256;16.402;2023-03-20T16:43:55;15.90;84.40
13310;DHT22;6723;48.256;16.402;2023-03-20T16:46:25;15.80;85.00
13310;DHT22;6723;48.256;16.402;2023-03-20T16:48:56;15.70;85.60
13310;DHT22;6723;48.256;16.402;2023-03-20T16:51:26;15.60;85.90
13310;DHT22;6723;48.256;16.402;2023-03-20T16:53:59;15.60;86.40
13310;DHT22;6723;48.256;16.402;2023-03-20T16:56:35;15.50;86.70
13310;DHT22;6723;48.256;16.402;2023-03-20T16:59:09;15.40;87.10
13310;DHT22;6723;48.256;16.402;2023-03-20T17:01:41;15.30;87.70
13310;DHT22;6723;48.256;16.402;2023-03-20T17:06:49;15.20;89.40
13310;DHT22;6723;48.256;16.402;2023-03-20T17:12:17;15.20;89.10
13310;DHT22;6723;48.256;16.402;2023-03-20T17:14:43;15.20;89.00
13310;DHT22;6723;48.256;16.402;2023-03-20T17:17:20;15.20;88.40
13310;DHT22;6723;48.256;16.402;2023-03-20T17:19:48;15.20;88.50
13310;DHT22;6723;48.256;16.402;2023-03-20T17:22:17;15.10;88.40
13310;DHT22;6723;48.256;16.402;2023-03-20T17:24:43;15.10;88.70
13310;DHT22;6723;48.256;16.402;2023-03-20T17:27:14;15.10;89.10
13310;DHT22;6723;48.256;16.402;2023-03-20T17:29:41;15.10;89.60
13310;DHT22;6723;48.256;16.402;2023-03-20T17:32:12;15.10;89.60
13310;DHT22;6723;48.256;16.402;2023-03-20T17:34:38;15.10;89.50
13310;DHT22;6723;48.256;16.402;2023-03-20T17:37:05;15.10;89.50
13310;DHT22;6723;48.256;16.402;2023-03-20T17:39:32;15.10;89.70
13310;DHT22;6723;48.256;16.402;2023-03-20T17:41:58;15.00;89.80
13310;DHT22;6723;48.256;16.402;2023-03-20T17:44:24;15.00;90.00
13310;DHT22;6723;48.256;16.402;2023-03-20T17:46:49;15.00;90.10
13310;DHT22;6723;48.256;16.402;2023-03-20T17:49:16;15.10;90.20
13310;DHT22;6723;48.256;16.402;2023-03-20T17:51:47;15.00;90.10
13310;DHT22;6723;48.256;16.402;2023-03-20T17:54:13;15.00;90.20
13310;DHT22;6723;48.256;16.402;2023-03-20T17:56:39;15.00;90.30
13310;DHT22;6723;48.256;16.402;2023-03-20T17:59:11;15.00;90.40
13310;DHT22;6723;48.256;16.402;2023-03-20T18:01:38;15.00;90.40
13310;DHT22;6723;48.256;16.402;2023-03-20T18:04:04;15.00;90.40
13310;DHT22;6723;48.256;16.402;2023-03-20T18:06:31;15.00;90.50
13310;DHT22;6723;48.256;16.402;2023-03-20T18:08:59;14.90;90.90
13310;DHT22;6723;48.256;16.402;2023-03-20T18:11:26;14.80;91.00
13310;DHT22;6723;48.256;16.402;2023-03-20T18:13:53;14.80;91.00
13310;DHT22;6723;48.256;16.402;2023-03-20T18:16:24;14.80;91.40
13310;DHT22;6723;48.256;16.402;2023-03-20T18:18:50;14.70;91.40
13310;DHT22;6723;48.256;16.402;2023-03-20T18:21:21;14.60;91.60
13310;DHT22;6723;48.256;16.402;2023-03-20T18:23:47;14.50;91.70
13310;DHT22;6723;48.256;16.402;2023-03-20T18:26:24;14.60;91.90
13310;DHT22;6723;48.256;16.402;2023-03-20T18:28:52;14.50;91.90
13310;DHT22;6723;48.256;16.402;2023-03-20T18:31:19;14.50;92.00
13310;DHT22;6723;48.256;16.402;2023-03-20T18:33:49;14.50;92.10
13310;DHT22;6723;48.256;16.402;2023-03-20T18:36:19;14.50;92.10
13310;DHT22;6723;48.256;16.402;2023-03-20T18:38:46;14.40;92.10